Tiempo atmosférico en la estación meteorológica de Valverde del Fresno, Cáceres (498 m.)



Fecha
DESCASC
Temp. máxima en grados centígrados (hora)
DESCASC
Temp. mínima en grados centígrados (hora)
DESCASC
Temp. media en grados centígrados
DESCASC
Racha de viento máxima en m/sg (hora)
DESCASC
Velocidad máxima media en intervalos de 10 minutos(hora)
DESCASC
Precipitaciones diarias en mm
DESCASC
Precipitaciones de 00:00 a 06:00 en mm
DESCASC
Precipitaciones de 06:00 a 12:00 en mm
DESCASC
Precipitaciones de 12:00 a 18:00 en mm
DESCASC
Precipitaciones de 18:00 a 24:00 en mm
DESCASC
27-01-2020 10.4 (23:30) 7.7 (07:30) 9 3.61 (14:30) 1.67 (14:30) 16.2 0 3 12.2 1
26-01-2020 13.1 (15:40) 1.3 (09:00) 7.2 6.11 (15:50) 3.61 (15:50) 0 0 0 0 0
25-01-2020 10.5 (16:40) 4.2 (00:00) 7.3 6.39 (04:30) 3.89 (04:30) 2 1 0.6 0.4 0
24-01-2020 10.3 (16:50) 6.9 (00:00) 8.6 6.11 (14:20) 3.61 (09:30) 0.4 0.4 0 0 0
23-01-2020 9.8 (01:10) 6.2 (00:00) 8 11.67 (15:40) 6.11 (03:30) 8.8 2 5.2 1.4 0.2
22-01-2020 9.6 (16:30) 6 (00:00) 7.8 11.39 (07:40) 7.22 (05:50) 0 0 0 0 0
21-01-2020 8.8 (14:40) 2.9 (00:00) 5.9 21.67 (11:50) 13.61 (06:00) 0 0 0 0 0
20-01-2020 7.5 (15:40) 2.7 (00:00) 5.1 27.78 (07:40) 17.5 (01:10) 0 0 0 0 0
19-01-2020 11.6 (15:20) 4.3 (00:00) 8 29.72 (23:10) 17.22 (23:59) 0 0 0 0 0
18-01-2020 10 (13:40) 6.5 (00:00) 8.3 7.22 (22:20) 3.61 (22:30) 15.8 10.4 5 0.2 0.2
17-01-2020 14.2 (16:30) 7.2 (00:00) 10.7 3.33 (12:20) 2.5 (22:20) 0.2 0 0.2 0 0
16-01-2020 13.1 (15:50) 9 (00:00) 11.1 8.61 (14:10) 5.28 (15:00) 4.4 0.6 0 0 3.8
15-01-2020 10.3 (17:50) 7.6 (00:00) 9 7.5 (05:40) 3.89 (05:20) 30 1 11.6 16.4 1
14-01-2020 8.5 (23:40) 4.1 (00:00) 6.3 5.83 (23:30) 3.06 (23:30) 4.4 0 0 0.2 4.2
13-01-2020 10.9 (14:40) -0.1 (00:00) 5.4 4.44 (16:40) 3.06 (20:40) 0 0 0 0 0
12-01-2020 13.7 (15:40) -0.6 (-00:0) 6.5 3.61 (20:30) 2.78 (22:30) 0 0 0 0 0
11-01-2020 12.7 (16:00) 0.6 (00:00) 6.6 3.89 (00:30) 3.06 (19:20) 0 0 0 0 0
10-01-2020 12.4 (14:00) 5 (00:00) 8.7 15.56 (04:10) 8.33 (04:10) 0 0 0 0 0
09-01-2020 16 (16:00) 1.8 (00:00) 8.9 10.56 (21:20) 5.83 (21:30) 0 0 0 0 0
08-01-2020 15.3 (17:40) 0.5 (00:00) 7.9 3.61 (22:30) 2.22 (18:50) 0 0 0 0 0
07-01-2020 16.3 (16:10) 1.2 (00:00) 8.7 3.89 (18:50) 3.06 (19:00) 0 0 0 0 0
06-01-2020 13.8 (17:10) 0 (00:00) 6.9 3.61 (21:50) 2.78 (21:50) 0 0 0 0 0
05-01-2020 14.1 (16:50) 0.1 (00:00) 7.1 3.89 (18:50) 3.33 (18:50) 0 0 0 0 0
04-01-2020 11.8 (15:30) 3.8 (00:00) 7.8 11.39 (16:40) 6.94 (13:10) 0 0 0 0 0
03-01-2020 14.2 (15:10) 3.1 (00:00) 8.6 9.44 (20:40) 4.44 (16:30) 0 0 0 0 0
02-01-2020 12.4 (15:40) 0.7 (00:00) 6.5 3.33 (15:50) 1.94 (00:50) 0 0 0 0 0
01-01-2020 14.5 (15:50) 2.2 (00:00) 8.4 3.33 (19:00) 2.78 (19:00) 0 0 0 0 0
31-12-2019 14.7 (16:10) 1.3 (00:00) 8 3.06 (19:00) 2.78 (19:00) 0 0 0 0 0
30-12-2019 16.5 (16:20) 1.6 (00:00) 9.1 3.33 (20:00) 2.78 (20:00) 0 0 0 0 0

Gráficas

Temp. máximas Temp. mínimas Temp. medias Precipitaciones Rachas de viento máximas Velocidades máximas media en intervalos de 10 minutos

Datos horarios

Fecha y hora oficial Temperatura (ºC) Velocidad del viento (km/h) Dirección del viento Racha (km/h) Dirección de racha Precipitación (mm) Presión (hPa) Tendencia (hPa) Humedad (%)
2020-01-28 23:00:00 10.7 3 Nordeste 4 Nordeste 0 -- -- 99
2020-01-28 22:00:00 11.1 0 Calma 5 Oeste 0 -- -- 98
2020-01-28 21:00:00 11.5 0 Calma 5 Norte 0 -- -- 98
2020-01-28 20:00:00 11.8 2 Sudeste 9 Oeste 0 -- -- 97
2020-01-28 19:00:00 12.1 4 Oeste 16 Oeste 0 -- -- 96
2020-01-28 18:00:00 12.4 8 Sudoeste 20 Sudoeste 0 -- -- 94
2020-01-28 17:00:00 12.2 9 Sudoeste 24 Sudoeste 0.2 -- -- 96
2020-01-28 16:00:00 12.4 9 Sudoeste 21 Sudoeste 0 -- -- 94
2020-01-28 15:00:00 12.6 13 Sudoeste 29 Sudoeste 0 -- -- 93
2020-01-28 14:00:00 12.3 10 Sudoeste 19 Sudoeste 0.2 -- -- 98
2020-01-28 13:00:00 11.9 4 Sudoeste 10 Sudoeste 0.2 -- -- 100
2020-01-28 12:00:00 11.7 3 Sudoeste 16 Sudoeste 0 -- -- 100
2020-01-28 11:00:00 11 0 Calma 4 Este 0.4 -- -- 100
2020-01-28 10:00:00 10.8 2 Nordeste 6 Este 0 -- -- 100
2020-01-28 09:00:00 10.5 3 Este 5 Este 0 -- -- 100
2020-01-28 08:00:00 10.5 2 Oeste 6 Norte 0 -- -- 100
2020-01-28 07:00:00 10.3 3 Nordeste 4 Nordeste 0 -- -- 99
2020-01-28 06:00:00 10.3 0 Calma 4 Norte 0 -- -- 99
2020-01-28 05:00:00 10.2 0 Calma 8 Sudoeste 0 -- -- 98
2020-01-28 04:00:00 10.3 3 Oeste 9 Oeste 0 -- -- 98
2020-01-28 03:00:00 10.2 0 Calma 5 Nordeste 0 -- -- 98
2020-01-28 02:00:00 10.2 0 Calma 10 Sudoeste 0 -- -- 98
2020-01-28 01:00:00 10.6 6 Oeste 18 Oeste 0.2 -- -- 99
2020-01-28 00:00:00 10.3 0 Calma 5 Este 0 -- -- 100
2020-01-27 23:00:00 10.3 0 Calma 4 Noroeste 0.2 -- -- 100
2020-01-27 22:00:00 10.2 3 Norte 6 Norte 0.2 -- -- 100
2020-01-27 21:00:00 10 3 Nordeste 6 Nordeste 0 -- -- 100
2020-01-27 20:00:00 9.6 4 Nordeste 6 Norte 0 -- -- 100
2020-01-27 19:00:00 9.5 0 Calma 7 Norte 0.6 -- -- 100
2020-01-27 18:00:00 9.5 4 Norte 6 Nordeste 1.4 -- -- 100
2020-01-27 17:00:00 9.2 3 Nordeste 8 Este 2.2 -- -- 100
2020-01-27 16:00:00 8.8 4 Este 12 Este 2.8 -- -- 99
2020-01-27 15:00:00 9 6 Este 13 Sur 1 -- -- 99
2020-01-27 14:00:00 8.9 4 Este 8 Este 3.4 -- -- 99
2020-01-27 13:00:00 8.7 0 Calma 8 Sur 1.4 -- -- 99
2020-01-27 12:00:00 8.3 3 Este 8 Sudeste 1.4 -- -- 99
2020-01-27 11:00:00 7.9 0 Calma 9 Este 0.4 -- -- 99
2020-01-27 10:00:00 7.8 4 Sur 10 Sur 1 -- -- 98
2020-01-27 09:00:00 7.8 0 Calma 8 Sur 0.2 -- -- 97
2020-01-27 08:00:00 7.8 0 Calma 8 Sudoeste 0 -- -- 98
2020-01-27 07:00:00 7.8 5 Sur 9 Sudoeste 0 -- -- 97
2020-01-27 06:00:00 8 3 Sur 6 Sudeste 0 -- -- 96
2020-01-27 05:00:00 7.9 0 Calma 4 Sudoeste 0 -- -- 95
2020-01-27 04:00:00 8.1 0 Calma 4 Sudeste 0 -- -- 95
2020-01-27 03:00:00 8.3 0 Calma 4 Sudeste 0 -- -- 94
2020-01-27 02:00:00 8.4 0 Calma 4 Nordeste 0 -- -- 94
2020-01-27 01:00:00 8.4 3 Norte 5 Nordeste 0 -- -- 94
2020-01-27 00:00:00 8.4 0 Calma 6 Sudeste 0 -- -- 93
2020-01-26 23:00:00 8.6 2 Norte 3 Oeste 0 -- -- 92
2020-01-26 22:00:00 8.9 0 Calma 6 Oeste 0 -- -- 90
2020-01-26 21:00:00 9 0 Calma 4 Oeste 0 -- -- 90
2020-01-26 20:00:00 8.8 4 Norte 5 Norte 0 -- -- 89
2020-01-26 19:00:00 9.7 0 Calma 5 Sudoeste 0 -- -- 82
2020-01-26 18:00:00 10.2 4 Oeste 18 Oeste 0 -- -- 77
2020-01-26 17:00:00 11.5 8 Sudoeste 14 Oeste 0 -- -- 72
2020-01-26 16:00:00 12.9 12 Sur 22 Sudoeste 0 -- -- 61
2020-01-26 15:00:00 13 6 Sur 18 Sur 0 -- -- 63
2020-01-26 14:00:00 11.9 7 Sudoeste 14 Sudoeste 0 -- -- 66
2020-01-26 13:00:00 11.3 3 Sur 8 Sudoeste 0 -- -- 68
2020-01-26 12:00:00 9.3 2 Sudeste 6 Sur 0 -- -- 75
2020-01-26 11:00:00 6.5 3 Sudoeste 6 Sur 0 -- -- 91
2020-01-26 10:00:00 4.7 4 Norte 10 Norte 0 -- -- 96
2020-01-26 09:00:00 1.3 0 Calma 5 Norte 0 -- -- 98
2020-01-26 08:00:00 1.8 3 Norte 8 Norte 0 -- -- 98
2020-01-26 07:00:00 1.9 0 Calma 7 Noroeste 0 -- -- 98
2020-01-26 06:00:00 2.1 2 Nordeste 8 Nordeste 0 -- -- 99
2020-01-26 05:00:00 2.4 2 Nordeste 9 Nordeste 0 -- -- 98
2020-01-26 04:00:00 3.1 3 Norte 11 Norte 0 -- -- 96
2020-01-26 03:00:00 3.2 0 Calma 7 Nordeste 0 -- -- 98
2020-01-26 02:00:00 3.4 3 Norte 10 Norte 0 -- -- 96
2020-01-26 01:00:00 4.1 6 Nordeste 9 Norte 0 -- -- 97
2020-01-26 00:00:00 4.7 2 Nordeste 9 Nordeste 0 -- -- 97
2020-01-25 23:00:00 4.6 3 Norte 10 Norte 0 -- -- 95
2020-01-25 22:00:00 5.2 4 Noroeste 13 Norte 0 -- -- 94
2020-01-25 21:00:00 6.3 5 Noroeste 12 Norte 0 -- -- 95
2020-01-25 20:00:00 8.1 2 Sudeste 16 Este 0 -- -- 92
2020-01-25 19:00:00 9 9 Norte 19 Nordeste 0 -- -- 85
2020-01-25 18:00:00 9.9 4 Noroeste 15 Noroeste 0 -- -- 86
2020-01-25 17:00:00 10.5 0 Calma 5 Noroeste 0 -- -- 84
2020-01-25 16:00:00 9.9 3 Noroeste 5 Noroeste 0 -- -- 87
2020-01-25 15:00:00 9.3 3 Sur 6 Sur 0 -- -- 92
2020-01-25 14:00:00 8.9 3 Sudoeste 6 Oeste 0.4 -- -- 93
2020-01-25 13:00:00 9.1 4 Sudoeste 7 Sudoeste 0 -- -- 89
2020-01-25 12:00:00 8.7 4 Sur 7 Sur 0 -- -- 93
2020-01-25 11:00:00 7.9 3 Sur 5 Noroeste 0.2 -- -- 94
2020-01-25 10:00:00 7 0 Calma 6 Oeste 0 -- -- 94
2020-01-25 09:00:00 6.7 4 Sudoeste 8 Sur 0 -- -- 93
2020-01-25 08:00:00 6.9 3 Noroeste 8 Sudoeste 0.2 -- -- 89
2020-01-25 07:00:00 7.1 3 Sudoeste 19 Nordeste 0.2 -- -- 90
2020-01-25 06:00:00 7.5 7 Norte 18 Este 0.6 -- -- 85
2020-01-25 05:00:00 8.1 4 Nordeste 23 Este 0 -- -- 82
2020-01-25 04:00:00 8.1 13 Este 21 Este 0 -- -- 85
2020-01-25 03:00:00 8 8 Este 15 Sudeste 0.4 -- -- 88
2020-01-25 02:00:00 8.3 4 Este 18 Este 0 -- -- 84
2020-01-25 01:00:00 8.2 3 Oeste 13 Oeste 0 -- -- 83
2020-01-25 00:00:00 8.7 4 Sudoeste 9 Sudoeste 0 -- -- 79
2020-01-24 23:00:00 9 3 Sur 13 Este 0 -- -- 76
2020-01-24 22:00:00 9.1 7 Este 19 Este 0 -- -- 76
2020-01-24 21:00:00 8.6 0 Calma 15 Este 0 -- -- 82
2020-01-24 20:00:00 8.7 6 Nordeste 12 Nordeste 0 -- -- 83
2020-01-24 19:00:00 9 4 Este 13 Nordeste 0 -- -- 83
2020-01-24 18:00:00 9.6 5 Este 19 Este 0 -- -- 81
2020-01-24 17:00:00 10.2 10 Sudeste 17 Sudeste 0 -- -- 79
2020-01-24 16:00:00 10.2 3 Nordeste 12 Sudeste 0 -- -- 80
2020-01-24 15:00:00 9.5 8 Este 22 Este 0 -- -- 83
2020-01-24 14:00:00 9 8 Este 17 Este 0 -- -- 85
2020-01-24 13:00:00 8.4 13 Este 21 Este 0 -- -- 86
2020-01-24 12:00:00 8.3 7 Este 16 Este 0 -- -- 87
2020-01-24 11:00:00 7.8 10 Este 16 Este 0 -- -- 86
2020-01-24 10:00:00 7.4 11 Este 22 Sudeste 0 -- -- 90
2020-01-24 09:00:00 6.9 7 Este 19 Este 0 -- -- 95
2020-01-24 08:00:00 7.2 8 Sudeste 21 Este 0 -- -- 95
2020-01-24 07:00:00 7.3 11 Sudeste 21 Sudeste 0 -- -- 96
2020-01-24 06:00:00 7.3 9 Este 19 Este 0 -- -- 97
2020-01-24 05:00:00 7.4 12 Este 21 Este 0 -- -- 98
2020-01-24 04:00:00 7.5 10 Sudeste 20 Sudeste 0.2 -- -- 97
2020-01-24 03:00:00 7.8 7 Sudeste 18 Sudeste 0.2 -- -- 96
2020-01-24 02:00:00 8 9 Sudeste 21 Sudeste 0 -- -- 94
2020-01-24 01:00:00 7.9 9 Sudeste 21 Este 0 -- -- 94
2020-01-24 00:00:00 8.1 13 Sudeste 26 Sudeste 0 -- -- 92
2020-01-23 23:00:00 8.1 11 Sudeste 24 Este 0 -- -- 90
2020-01-23 22:00:00 8 11 Sudeste 23 Sudeste 0 -- -- 91
2020-01-23 21:00:00 7.9 13 Sudeste 27 Este 0 -- -- 91
2020-01-23 20:00:00 7.9 13 Sudeste 25 Sudeste 0 -- -- 90
2020-01-23 19:00:00 7.7 15 Este 30 Sudeste 0.2 -- -- 91
2020-01-23 18:00:00 7.4 12 Sudeste 28 Este 0.2 -- -- 93
2020-01-23 17:00:00 7.7 15 Este 31 Este 0.2 -- -- 91
2020-01-23 16:00:00 7.8 19 Este 42 Este 0 -- -- 89
2020-01-23 15:00:00 7.4 19 Este 33 Este 0.4 -- -- 90
2020-01-23 14:00:00 6.9 17 Este 34 Este 0.2 -- -- 92
2020-01-23 13:00:00 6.9 17 Sudeste 35 Este 0.4 -- -- 90
2020-01-23 12:00:00 7.2 17 Este 35 Este 0 -- -- 88
2020-01-23 11:00:00 6.8 19 Este 32 Sudeste 0.4 -- -- 91
2020-01-23 10:00:00 6.4 14 Este 36 Este 1.2 -- -- 92
2020-01-23 09:00:00 6.3 14 Este 28 Este 0.6 -- -- 92
2020-01-23 08:00:00 6.4 13 Este 26 Este 1.6 -- -- 91
2020-01-23 07:00:00 6.6 11 Sudeste 26 Este 1.4 -- -- 92
2020-01-23 06:00:00 6.8 16 Este 29 Este 0.8 -- -- 90
2020-01-23 05:00:00 7.1 16 Este 33 Este 0.8 -- -- 89
2020-01-23 04:00:00 7.4 10 Este 36 Este 0.2 -- -- 86
2020-01-23 03:00:00 8.1 12 Este 26 Este 0.2 -- -- 80
2020-01-23 02:00:00 9.5 17 Este 31 Este 0 -- -- 69
2020-01-23 01:00:00 9.7 17 Este 28 Este 0 -- -- 67
2020-01-23 00:00:00 9.1 2 Este 12 Nordeste 0 -- -- 66
2020-01-22 23:00:00 8.9 0 Calma 6 Nordeste 0 -- -- 66
2020-01-22 22:00:00 8.5 0 Calma 4 Nordeste 0 -- -- 68
2020-01-22 21:00:00 8.5 0 Calma 7 Este 0 -- -- 68
2020-01-22 20:00:00 8.3 0 Calma 5 Noroeste 0 -- -- 70
2020-01-22 19:00:00 8.4 0 Calma 9 Este 0 -- -- 72
2020-01-22 18:00:00 9.3 3 Este 18 Este 0 -- -- 68
2020-01-22 17:00:00 9.6 9 Este 19 Este 0 -- -- 69
2020-01-22 16:00:00 9.4 10 Este 15 Este 0 -- -- 71
2020-01-22 15:00:00 9.3 9 Este 26 Este 0 -- -- 71
2020-01-22 14:00:00 9.3 18 Este 32 Este 0 -- -- 71
2020-01-22 13:00:00 8.9 6 Nordeste 22 Nordeste 0 -- -- 71
2020-01-22 12:00:00 8 6 Nordeste 22 Nordeste 0 -- -- 75
2020-01-22 11:00:00 8 9 Nordeste 28 Nordeste 0 -- -- 72
2020-01-22 10:00:00 6.9 15 Nordeste 34 Nordeste 0 -- -- 75
2020-01-22 09:00:00 6.1 17 Nordeste 37 Nordeste 0 -- -- 77
2020-01-22 08:00:00 6.3 21 Nordeste 41 Nordeste 0 -- -- 76
2020-01-22 07:00:00 6.2 23 Nordeste 39 Nordeste 0 -- -- 77
2020-01-22 06:00:00 6.4 26 Nordeste 39 Nordeste 0 -- -- 76
2020-01-22 05:00:00 6.8 15 Nordeste 35 Nordeste 0 -- -- 73
2020-01-22 04:00:00 6.5 21 Nordeste 38 Nordeste 0 -- -- 74
2020-01-22 03:00:00 6.4 12 Nordeste 36 Norte 0 -- -- 74
2020-01-22 02:00:00 6 13 Norte 27 Nordeste 0 -- -- 74
2020-01-22 01:00:00 6.3 17 Nordeste 37 Nordeste 0 -- -- 73
2020-01-22 00:00:00 6.5 25 Nordeste 44 Nordeste 0 -- -- 73
2020-01-21 23:00:00 6.5 27 Nordeste 46 Nordeste 0 -- -- 72
2020-01-21 22:00:00 6.9 12 Nordeste 28 Norte 0 -- -- 72
2020-01-21 21:00:00 7.2 6 Norte 40 Nordeste 0 -- -- 69
2020-01-21 20:00:00 7.4 26 Nordeste 59 Norte 0 -- -- 68
2020-01-21 19:00:00 7.6 27 Nordeste 61 Nordeste 0 -- -- 66
2020-01-21 18:00:00 7.7 12 Sur 42 Noroeste 0 -- -- 64
2020-01-21 17:00:00 8 9 Este 51 Nordeste 0 -- -- 64
2020-01-21 16:00:00 8.1 24 Nordeste 55 Nordeste 0 -- -- 64
2020-01-21 15:00:00 8.3 14 Nordeste 54 Norte 0 -- -- 60
2020-01-21 14:00:00 8.4 31 Nordeste 68 Nordeste 0 -- -- 59
2020-01-21 13:00:00 6.9 38 Nordeste 66 Norte 0 -- -- 62
2020-01-21 12:00:00 5.8 32 Nordeste 78 Nordeste 0 -- -- 64
2020-01-21 11:00:00 5 19 Nordeste 59 Nordeste 0 -- -- 65
2020-01-21 10:00:00 3.9 35 Nordeste 64 Nordeste 0 -- -- 67
2020-01-21 09:00:00 3.1 32 Nordeste 71 Nordeste 0 -- -- 70
2020-01-21 08:00:00 3.2 24 Nordeste 67 Norte 0 -- -- 71
2020-01-21 07:00:00 3.5 42 Nordeste 72 Nordeste 0 -- -- 68
2020-01-21 06:00:00 3 49 Nordeste 76 Nordeste 0 -- -- 69
2020-01-21 05:00:00 3.2 38 Norte 69 Norte 0 -- -- 68
2020-01-21 04:00:00 3.8 39 Nordeste 67 Nordeste 0 -- -- 69
2020-01-21 03:00:00 3.9 26 Norte 48 Norte 0 -- -- 70
2020-01-21 02:00:00 4.1 33 Nordeste 59 Nordeste 0 -- -- 68
2020-01-21 01:00:00 4.3 37 Nordeste 64 Nordeste 0 -- -- 66
2020-01-21 00:00:00 4.3 28 Nordeste 53 Nordeste 0 -- -- 60
2020-01-20 23:00:00 5 16 Este 58 Nordeste 0 -- -- 58
2020-01-20 22:00:00 5.1 26 Nordeste 61 Nordeste 0 -- -- 55
2020-01-20 21:00:00 4.9 19 Nordeste 53 Nordeste 0 -- -- 54
2020-01-20 20:00:00 4.9 31 Nordeste 55 Nordeste 0 -- -- 53
2020-01-20 19:00:00 5.3 32 Nordeste 59 Nordeste 0 -- -- 51
2020-01-20 18:00:00 6.3 25 Nordeste 62 Nordeste 0 -- -- 49
2020-01-20 17:00:00 7.2 30 Nordeste 57 Nordeste 0 -- -- 45
2020-01-20 16:00:00 7.4 30 Nordeste 64 Norte 0 -- -- 46
2020-01-20 15:00:00 7.1 27 Nordeste 80 Nordeste 0 -- -- 44
2020-01-20 14:00:00 5.5 42 Nordeste 80 Nordeste 0 -- -- 47
2020-01-20 13:00:00 6 32 Nordeste 69 Nordeste 0 -- -- 47
2020-01-20 12:00:00 4.5 31 Nordeste 85 Nordeste 0 -- -- 52
2020-01-20 11:00:00 3.8 42 Nordeste 87 Nordeste 0 -- -- 53
2020-01-20 10:00:00 3.4 47 Nordeste 95 Norte 0 -- -- 53
2020-01-20 09:00:00 2.7 46 Nordeste 93 Norte 0 -- -- 56
2020-01-20 08:00:00 2.7 48 Nordeste 100 Nordeste 0 -- -- 57
2020-01-20 07:00:00 3 50 Nordeste 92 Nordeste 0 -- -- 55
2020-01-20 06:00:00 3.1 35 Nordeste 80 Nordeste 0 -- -- 53
2020-01-20 05:00:00 3.4 14 Nordeste 66 Nordeste 0 -- -- 53
2020-01-20 04:00:00 3.5 25 Nordeste 89 Nordeste 0 -- -- 53
2020-01-20 03:00:00 3.7 53 Nordeste 84 Nordeste 0 -- -- 56
2020-01-20 02:00:00 4 49 Nordeste 95 Nordeste 0 -- -- 55
2020-01-20 01:00:00 4.3 59 Nordeste 99 Nordeste 0 -- -- 54
2020-01-20 00:00:00 4.4 62 Nordeste 107 Norte 0 -- -- 54
2020-01-19 23:00:00 4.6 57 Nordeste 105 Nordeste 0 -- -- 52
2020-01-19 22:00:00 5.1 60 Nordeste 101 Nordeste 0 -- -- 47
2020-01-19 21:00:00 5.6 50 Nordeste 93 Norte 0 -- -- 47
2020-01-19 20:00:00 6.6 38 Nordeste 76 Nordeste 0 -- -- 43
2020-01-19 19:00:00 7.8 32 Nordeste 68 Nordeste 0 -- -- 44
2020-01-19 18:00:00 9.5 28 Nordeste 67 Nordeste 0 -- -- 43
2020-01-19 17:00:00 10.8 42 Nordeste 71 Nordeste 0 -- -- 39
2020-01-19 16:00:00 11.5 37 Nordeste 68 Nordeste 0 -- -- 40
2020-01-19 15:00:00 11.3 36 Nordeste 71 Nordeste 0 -- -- 46
2020-01-19 14:00:00 11 41 Nordeste 86 Norte 0 -- -- 54
2020-01-19 13:00:00 10.6 44 Norte 82 Norte 0 -- -- 57
2020-01-19 12:00:00 10 45 Nordeste 82 Nordeste 0 -- -- 68
2020-01-19 11:00:00 9 44 Norte 76 Nordeste 0 -- -- 71
2020-01-19 10:00:00 8.7 23 Nordeste 39 Nordeste 0 -- -- 71
2020-01-19 09:00:00 7.4 10 Noroeste 26 Sudoeste 0 -- -- 76
2020-01-19 08:00:00 7.1 4 Sudoeste 19 Sudoeste 0 -- -- 81
2020-01-19 07:00:00 7.7 9 Norte 21 Este 0 -- -- 79
2020-01-19 06:00:00 8.3 6 Sudeste 24 Noroeste 0 -- -- 78
2020-01-19 05:00:00 8.6 15 Norte 41 Norte 0 -- -- 78
2020-01-19 04:00:00 8.7 11 Norte 25 Norte 0 -- -- 83
2020-01-19 03:00:00 6.4 3 Oeste 12 Sudoeste 0 -- -- 88
2020-01-19 02:00:00 6.8 3 Sudoeste 15 Noroeste 0 -- -- 86
2020-01-19 01:00:00 7.9 7 Oeste 24 Noroeste 0 -- -- 83
2020-01-19 00:00:00 7.5 10 Noroeste 21 Noroeste 0 -- -- 84
2020-01-18 23:00:00 7.3 7 Noroeste 26 Noroeste 0 -- -- 84
2020-01-18 22:00:00 8.1 6 Oeste 15 Noroeste 0.2 -- -- 85
2020-01-18 21:00:00 8.8 8 Noroeste 25 Oeste 0 -- -- 91
2020-01-18 20:00:00 8.6 2 Noroeste 9 Oeste 0 -- -- 98
2020-01-18 19:00:00 9.6 0 Calma 6 Nordeste 0 -- -- 99
2020-01-18 18:00:00 9.9 4 Norte 8 Norte 0 -- -- 99
2020-01-18 17:00:00 10 0 Calma 4 Noroeste 0 -- -- 98
2020-01-18 16:00:00 9.9 0 Calma 8 Oeste 0 -- -- 97
2020-01-18 15:00:00 10 3 Sudoeste 9 Sudoeste 0.2 -- -- 97
2020-01-18 14:00:00 9.8 5 Sudoeste 10 Oeste 0 -- -- 97
2020-01-18 13:00:00 9.8 4 Sudoeste 13 Sudeste 0 -- -- 95
2020-01-18 12:00:00 9.5 5 Sudoeste 13 Oeste 0.2 -- -- 97
2020-01-18 11:00:00 9.2 0 Calma 19 Este 0.2 -- -- 95
2020-01-18 10:00:00 9 0 Calma 20 Este 0.6 -- -- 96
2020-01-18 09:00:00 8.7 4 Este 13 Este 1.2 -- -- 97
2020-01-18 08:00:00 8.7 3 Sudeste 14 Este 1.4 -- -- 97
2020-01-18 07:00:00 8.7 2 Sudeste 7 Este 1.4 -- -- 98
2020-01-18 06:00:00 8.3 0 Calma 4 Sudeste 4.2 -- -- 98
2020-01-18 05:00:00 8.1 3 Oeste 13 Oeste 2.6 -- -- 98
2020-01-18 04:00:00 7.8 3 Noroeste 11 Noroeste 2.2 -- -- 97
2020-01-18 03:00:00 7.8 4 Oeste 6 Oeste 1.4 -- -- 94
2020-01-18 02:00:00 8 0 Calma 7 Norte 0 -- -- 91
2020-01-18 01:00:00 7.4 2 Noroeste 9 Nordeste 0 -- -- 92
2020-01-18 00:00:00 7.4 4 Norte 7 Norte 0 -- -- 92
2020-01-17 23:00:00 7.4 4 Noroeste 10 Norte 0 -- -- 90
2020-01-17 22:00:00 7.8 5 Norte 10 Norte 0 -- -- 86
2020-01-17 21:00:00 7.8 9 Norte 10 Norte 0 -- -- 88
2020-01-17 20:00:00 8.4 5 Norte 9 Norte 0 -- -- 85
2020-01-17 19:00:00 9 3 Norte 8 Norte 0 -- -- 86
2020-01-17 18:00:00 10.5 3 Noroeste 8 Oeste 0 -- -- 79
2020-01-17 17:00:00 13.9 4 Sudoeste 9 Sudoeste 0 -- -- 60
2020-01-17 16:00:00 13.7 4 Sudoeste 10 Sudoeste 0 -- -- 64
2020-01-17 15:00:00 13.1 7 Sudoeste 11 Oeste 0 -- -- 69
2020-01-17 14:00:00 11.4 5 Sudoeste 9 Sudoeste 0 -- -- 81
2020-01-17 13:00:00 12 5 Sudeste 12 Sudoeste 0 -- -- 79
2020-01-17 12:00:00 11.6 6 Sur 9 Sur 0 -- -- 88
2020-01-17 11:00:00 9.5 2 Nordeste 6 Oeste 0.2 -- -- 99
2020-01-17 10:00:00 8.7 2 Sudoeste 7 Este 0 -- -- 99
2020-01-17 09:00:00 8.5 3 Nordeste 4 Nordeste 0 -- -- 99
2020-01-17 08:00:00 8.4 2 Norte 5 Norte 0 -- -- 99
2020-01-17 07:00:00 8.3 2 Noroeste 10 Oeste 0 -- -- 99
2020-01-17 06:00:00 8.5 2 Sur 8 Sur 0 -- -- 99
2020-01-17 05:00:00 8.5 0 Calma 7 Sudoeste 0 -- -- 98
2020-01-17 04:00:00 8.6 3 Sur 5 Sur 0 -- -- 98
2020-01-17 03:00:00 8.4 0 Calma 4 Este 0 -- -- 98
2020-01-17 02:00:00 8.3 0 Calma 6 Nordeste 0 -- -- 98
2020-01-17 01:00:00 8.6 2 Sur 5 Sudoeste 0 -- -- 96
2020-01-17 00:00:00 9 0 Calma 3 Oeste 0 -- -- 96
2020-01-16 23:00:00 9.2 0 Calma 7 Oeste 0 -- -- 95
2020-01-16 22:00:00 9.5 2 Oeste 10 Oeste 0 -- -- 93
2020-01-16 21:00:00 10 4 Oeste 14 Oeste 2.2 -- -- 95
2020-01-16 20:00:00 10.3 2 Nordeste 14 Sur 1.2 -- -- 91
2020-01-16 19:00:00 11.7 8 Sur 21 Sudeste 0.4 -- -- 79
2020-01-16 18:00:00 12.2 14 Sur 26 Sur 0 -- -- 75
2020-01-16 17:00:00 12.5 15 Sur 31 Sudeste 0 -- -- 76
2020-01-16 16:00:00 12.7 17 Sur 30 Sudeste 0 -- -- 76
2020-01-16 15:00:00 12.7 19 Sur 31 Sur 0 -- -- 74
2020-01-16 14:00:00 12.2 14 Sur 28 Sur 0 -- -- 78
2020-01-16 13:00:00 11 13 Sudeste 23 Sur 0 -- -- 89
2020-01-16 12:00:00 10.7 12 Sudeste 27 Sur 0 -- -- 91
2020-01-16 11:00:00 11.3 14 Sur 27 Sur 0 -- -- 92
2020-01-16 10:00:00 10.1 13 Sur 27 Sur 0 -- -- 96
2020-01-16 09:00:00 10.1 14 Sur 28 Sur 0 -- -- 97
2020-01-16 08:00:00 10 8 Sur 24 Sudeste 0 -- -- 99
2020-01-16 07:00:00 10 13 Sudeste 23 Sudeste 0 -- -- 99
2020-01-16 06:00:00 9.9 7 Sudeste 18 Sur 0 -- -- 99
2020-01-16 05:00:00 9.8 4 Sudeste 15 Sudeste 0 -- -- 99
2020-01-16 04:00:00 9.8 9 Sudeste 19 Sudeste 0.4 -- -- 98
2020-01-16 03:00:00 10 5 Sudeste 12 Sudeste 0 -- -- 98
2020-01-16 02:00:00 9.9 4 Sur 18 Sudeste 0.2 -- -- 98
2020-01-16 01:00:00 10.2 8 Sudeste 17 Sur 0 -- -- 97
2020-01-16 00:00:00 10.1 3 Sur 9 Sudeste 0 -- -- 98
2020-01-15 23:00:00 9.9 2 Sur 6 Sudoeste 0 -- -- 97
2020-01-15 22:00:00 9.8 4 Oeste 17 Oeste 0.2 -- -- 97
2020-01-15 21:00:00 10.1 6 Oeste 13 Oeste 0 -- -- 96
2020-01-15 20:00:00 10.3 3 Oeste 16 Sudeste 0.2 -- -- 97
2020-01-15 19:00:00 10 2 Sudoeste 10 Oeste 0.6 -- -- 98
2020-01-15 18:00:00 10.3 4 Sudoeste 12 Este 0.6 -- -- 97
2020-01-15 17:00:00 10 4 Norte 10 Oeste 2 -- -- 98
2020-01-15 16:00:00 9.9 2 Nordeste 10 Este 3.8 -- -- 98
2020-01-15 15:00:00 9.8 3 Oeste 14 Este 3.6 -- -- 97
2020-01-15 14:00:00 9.7 5 Este 11 Este 2.2 -- -- 98
2020-01-15 13:00:00 9.2 3 Oeste 11 Este 4.2 -- -- 98
2020-01-15 12:00:00 9 3 Noroeste 14 Norte 2 -- -- 98
2020-01-15 11:00:00 8.4 4 Este 10 Norte 5.6 -- -- 98
2020-01-15 10:00:00 8.5 3 Sudeste 14 Sudeste 2.4 -- -- 98
2020-01-15 09:00:00 7.9 3 Sudeste 10 Sur 1.4 -- -- 97
2020-01-15 08:00:00 7.7 2 Sudeste 10 Sudeste 0.2 -- -- 95
2020-01-15 07:00:00 7.8 5 Sudeste 21 Sur 0 -- -- 94
2020-01-15 06:00:00 8.3 14 Sur 27 Sur 0.6 -- -- 94
2020-01-15 05:00:00 8.4 10 Sur 21 Sudeste 0.4 -- -- 94
2020-01-15 04:00:00 8.6 8 Sudeste 21 Sudeste 0 -- -- 93
2020-01-15 03:00:00 8.8 9 Sudeste 21 Sudeste 0 -- -- 93
2020-01-15 02:00:00 8.8 9 Sudeste 21 Sudeste 0 -- -- 94
2020-01-15 01:00:00 8.8 10 Sudeste 23 Sudeste 0 -- -- 95
2020-01-15 00:00:00 8.5 8 Sudeste 21 Sudeste 0 -- -- 96
2020-01-14 23:00:00 8.3 9 Sudeste 18 Sudeste 0 -- -- 97
2020-01-14 22:00:00 7.8 3 Sur 13 Sudeste 1 -- -- 97
2020-01-14 21:00:00 7.5 2 Sur 9 Sudeste 1.8 -- -- 97
2020-01-14 20:00:00 7.1 0 Calma 8 Sudeste 0.8 -- -- 97
2020-01-14 19:00:00 6.6 3 Norte 6 Norte 0.6 -- -- 96
2020-01-14 18:00:00 6.9 3 Sur 7 Sudeste 0 -- -- 92
2020-01-14 17:00:00 7 2 Noroeste 6 Noroeste 0 -- -- 90
2020-01-14 16:00:00 6.9 3 Norte 6 Nordeste 0 -- -- 88
2020-01-14 15:00:00 6.8 0 Calma 9 Norte 0 -- -- 89
2020-01-14 14:00:00 5.7 3 Norte 5 Noroeste 0.2 -- -- 95
2020-01-14 13:00:00 5.7 0 Calma 3 Sur 0 -- -- 90
2020-01-14 12:00:00 5.7 2 Sudoeste 6 Noroeste 0 -- -- 92
2020-01-14 11:00:00 5.6 2 Oeste 6 Sudoeste 0 -- -- 94
2020-01-14 10:00:00 5.1 0 Calma 7 Sudeste 0 -- -- 93
2020-01-14 09:00:00 4.4 3 Nordeste 5 Norte 0 -- -- 95
2020-01-14 08:00:00 4.2 2 Oeste 3 Noroeste 0 -- -- 93
2020-01-14 07:00:00 4.2 0 Calma 4 Norte 0 -- -- 92
2020-01-14 06:00:00 4.2 3 Este 10 Sudoeste 0 -- -- 91
2020-01-14 05:00:00 5.1 6 Sudoeste 9 Sudoeste 0 -- -- 91
2020-01-14 04:00:00 6 4 Noroeste 8 Norte 0 -- -- 85
2020-01-14 03:00:00 5.1 3 Norte 5 Norte 0 -- -- 92
2020-01-14 02:00:00 5.5 3 Norte 5 Norte 0 -- -- 88
2020-01-14 01:00:00 5.1 0 Calma 4 Norte 0 -- -- 89
2020-01-14 00:00:00 5.4 2 Norte 5 Noroeste 0 -- -- 87
2020-01-13 23:00:00 4.8 0 Calma 8 Norte 0 -- -- 88
2020-01-13 22:00:00 4.1 7 Norte 12 Norte 0 -- -- 87
2020-01-13 21:00:00 4 8 Norte 13 Norte 0 -- -- 87
2020-01-13 20:00:00 4.2 7 Norte 10 Norte 0 -- -- 87
2020-01-13 19:00:00 6.2 0 Calma 9 Sur 0 -- -- 79
2020-01-13 18:00:00 9 6 Sudeste 15 Sudeste 0 -- -- 68
2020-01-13 17:00:00 10.5 7 Sur 16 Sudeste 0 -- -- 61
2020-01-13 16:00:00 10.9 4 Sur 15 Sudoeste 0 -- -- 59
2020-01-13 15:00:00 10.6 9 Sur 15 Sur 0 -- -- 61
2020-01-13 14:00:00 9.8 3 Sur 8 Sudeste 0 -- -- 64
2020-01-13 13:00:00 9 3 Sur 8 Sur 0 -- -- 73
2020-01-13 12:00:00 5.9 2 Sur 5 Sur 0 -- -- 87
2020-01-13 11:00:00 3.5 0 Calma 4 Norte 0 -- -- 98
2020-01-13 10:00:00 2.1 4 Norte 5 Norte 0 -- -- 99
2020-01-13 09:00:00 -0.1 4 Nordeste 5 Nordeste 0 -- -- 98
2020-01-13 08:00:00 1 2 Oeste 4 Noroeste 0 -- -- 98
2020-01-13 07:00:00 1.2 2 Noroeste 6 Norte 0 -- -- 97
2020-01-13 06:00:00 1.8 2 Norte 4 Noroeste 0 -- -- 98
2020-01-13 05:00:00 2 0 Calma 6 Norte 0 -- -- 98
2020-01-13 04:00:00 1.2 3 Norte 7 Noroeste 0 -- -- 97
2020-01-13 03:00:00 2.2 3 Noroeste 6 Norte 0 -- -- 96
2020-01-13 02:00:00 2.6 3 Norte 5 Norte 0 -- -- 94
2020-01-13 01:00:00 3.2 0 Calma 8 Norte 0 -- -- 91
2020-01-13 00:00:00 3.5 4 Norte 8 Norte 0 -- -- 92
2020-01-12 23:00:00 4.4 6 Norte 12 Norte 0 -- -- 86
2020-01-12 22:00:00 4.1 6 Norte 12 Norte 0 -- -- 87
2020-01-12 21:00:00 5.4 10 Norte 13 Norte 0 -- -- 85
2020-01-12 20:00:00 6.3 5 Norte 9 Noroeste 0 -- -- 82
2020-01-12 19:00:00 7.6 4 Noroeste 8 Norte 0 -- -- 81
2020-01-12 18:00:00 12.1 3 Sudoeste 9 Sudoeste 0 -- -- 62
2020-01-12 17:00:00 13.4 4 Sur 9 Sur 0 -- -- 56
2020-01-12 16:00:00 13.5 6 Sur 9 Sur 0 -- -- 56
2020-01-12 15:00:00 13.2 4 Sur 9 Sur 0 -- -- 50
2020-01-12 14:00:00 12.3 3 Sur 10 Sudeste 0 -- -- 54
2020-01-12 13:00:00 10.7 3 Sur 8 Sur 0 -- -- 58
2020-01-12 12:00:00 8.5 3 Sur 5 Sur 0 -- -- 65
2020-01-12 11:00:00 5.1 0 Calma 3 Este 0 -- -- 77
2020-01-12 10:00:00 3.1 0 Calma 6 Norte 0 -- -- 88
2020-01-12 09:00:00 -0.1 3 Nordeste 5 Norte 0 -- -- 93
2020-01-12 08:00:00 0.2 0 Calma 6 Noroeste 0 -- -- 93
2020-01-12 07:00:00 0.7 2 Norte 9 Norte 0 -- -- 91
2020-01-12 06:00:00 1.3 7 Norte 9 Norte 0 -- -- 93
2020-01-12 05:00:00 0.7 0 Calma 4 Norte 0 -- -- 93
2020-01-12 04:00:00 1.5 2 Norte 9 Noroeste 0 -- -- 88
2020-01-12 03:00:00 1.6 4 Norte 8 Norte 0 -- -- 92
2020-01-12 02:00:00 2.1 0 Calma 8 Norte 0 -- -- 88
2020-01-12 01:00:00 3 6 Norte 9 Norte 0 -- -- 87
2020-01-12 00:00:00 2.4 4 Norte 12 Norte 0 -- -- 85
2020-01-11 23:00:00 3.6 8 Norte 10 Norte 0 -- -- 83
2020-01-11 22:00:00 3.7 3 Norte 11 Norte 0 -- -- 83
2020-01-11 21:00:00 4.2 5 Norte 10 Norte 0 -- -- 83
2020-01-11 20:00:00 4.9 6 Norte 13 Norte 0 -- -- 81
2020-01-11 19:00:00 6.3 10 Norte 11 Norte 0 -- -- 79
2020-01-11 18:00:00 10.9 3 Oeste 7 Sudoeste 0 -- -- 60
2020-01-11 17:00:00 12.3 3 Sur 11 Sur 0 -- -- 51
2020-01-11 16:00:00 12.7 3 Sudoeste 11 Sur 0 -- -- 50
2020-01-11 15:00:00 12.2 6 Sur 13 Sur 0 -- -- 53
2020-01-11 14:00:00 12 5 Sudeste 11 Sudeste 0 -- -- 49
2020-01-11 13:00:00 11.2 3 Sur 10 Sur 0 -- -- 51
2020-01-11 12:00:00 9.4 5 Sur 7 Sur 0 -- -- 62
2020-01-11 11:00:00 7.6 3 Sur 4 Sur 0 -- -- 72
2020-01-11 10:00:00 2.2 2 Norte 8 Norte 0 -- -- 88
2020-01-11 09:00:00 1.2 4 Norte 6 Norte 0 -- -- 88
2020-01-11 08:00:00 0.9 4 Norte 10 Norte 0 -- -- 89
2020-01-11 07:00:00 2.7 8 Norte 10 Norte 0 -- -- 81
2020-01-11 06:00:00 1.8 4 Norte 9 Norte 0 -- -- 84
2020-01-11 05:00:00 2.1 7 Norte 9 Norte 0 -- -- 84
2020-01-11 04:00:00 2.2 0 Calma 8 Norte 0 -- -- 81
2020-01-11 03:00:00 2.2 2 Norte 5 Sudeste 0 -- -- 82
2020-01-11 02:00:00 4.2 0 Calma 6 Norte 0 -- -- 72
2020-01-11 01:00:00 6.2 4 Norte 14 Norte 0 -- -- 63
2020-01-11 00:00:00 6.8 5 Norte 24 Nordeste 0 -- -- 61
2020-01-10 23:00:00 7.1 17 Nordeste 33 Norte 0 -- -- 62
2020-01-10 22:00:00 8 18 Este 43 Norte 0 -- -- 57
2020-01-10 21:00:00 7.9 18 Nordeste 30 Este 0 -- -- 60
2020-01-10 20:00:00 8.6 8 Nordeste 27 Sudeste 0 -- -- 57
2020-01-10 19:00:00 8.9 10 Nordeste 33 Norte 0 -- -- 57
2020-01-10 18:00:00 10.2 10 Norte 33 Nordeste 0 -- -- 53
2020-01-10 17:00:00 11.4 20 Nordeste 39 Nordeste 0 -- -- 49
2020-01-10 16:00:00 11.9 23 Norte 42 Nordeste 0 -- -- 48
2020-01-10 15:00:00 11.8 23 Nordeste 40 Nordeste 0 -- -- 49
2020-01-10 14:00:00 12.4 10 Nordeste 44 Nordeste 0 -- -- 47
2020-01-10 13:00:00 10.7 26 Nordeste 46 Nordeste 0 -- -- 54
2020-01-10 12:00:00 9.4 21 Nordeste 40 Norte 0 -- -- 54
2020-01-10 11:00:00 7.1 17 Norte 34 Norte 0 -- -- 68
2020-01-10 10:00:00 5.6 17 Norte 44 Norte 0 -- -- 74
2020-01-10 09:00:00 5 23 Norte 43 Norte 0 -- -- 78
2020-01-10 08:00:00 5.5 21 Norte 44 Norte 0 -- -- 76
2020-01-10 07:00:00 6.1 23 Norte 49 Nordeste 0 -- -- 74
2020-01-10 06:00:00 6.2 20 Norte 41 Norte 0 -- -- 71
2020-01-10 05:00:00 6.8 23 Este 56 Nordeste 0 -- -- 68
2020-01-10 04:00:00 7.5 14 Nordeste 45 Este 0 -- -- 64
2020-01-10 03:00:00 7.8 18 Este 41 Este 0 -- -- 61
2020-01-10 02:00:00 7.8 14 Nordeste 50 Nordeste 0 -- -- 68
2020-01-10 01:00:00 8.4 12 Norte 45 Noroeste 0 -- -- 69
2020-01-10 00:00:00 8.7 18 Noroeste 36 Noroeste 0 -- -- 70
2020-01-09 23:00:00 9.5 11 Noroeste 31 Noroeste 0 -- -- 67
2020-01-09 22:00:00 10.2 7 Norte 38 Norte 0 -- -- 71
2020-01-09 21:00:00 10.5 5 Sur 28 Norte 0 -- -- 73
2020-01-09 20:00:00 11.9 10 Norte 25 Norte 0 -- -- 70
2020-01-09 19:00:00 10.9 4 Noroeste 7 Norte 0 -- -- 84
2020-01-09 18:00:00 13.2 5 Sudoeste 12 Sudoeste 0 -- -- 69
2020-01-09 17:00:00 15.3 3 Sudoeste 10 Sudoeste 0 -- -- 62
2020-01-09 16:00:00 16 2 Sudeste 10 Sudeste 0 -- -- 56
2020-01-09 15:00:00 14.9 6 Sudeste 12 Sudeste 0 -- -- 57
2020-01-09 14:00:00 15 3 Sur 6 Sudeste 0 -- -- 56
2020-01-09 13:00:00 13 3 Sudeste 8 Sudeste 0 -- -- 61
2020-01-09 12:00:00 10.8 4 Sur 6 Sur 0 -- -- 72
2020-01-09 11:00:00 7.6 0 Calma 5 Nordeste 0 -- -- 78
2020-01-09 10:00:00 3.6 3 Nordeste 9 Nordeste 0 -- -- 88
2020-01-09 09:00:00 3.8 2 Oeste 13 Norte 0 -- -- 86
2020-01-09 08:00:00 3.1 0 Calma 8 Norte 0 -- -- 87
2020-01-09 07:00:00 3.6 4 Norte 7 Norte 0 -- -- 86
2020-01-09 06:00:00 2.2 4 Norte 6 Norte 0 -- -- 91
2020-01-09 05:00:00 3.5 0 Calma 10 Norte 0 -- -- 86
2020-01-09 04:00:00 4.5 5 Norte 9 Norte 0 -- -- 80
2020-01-09 03:00:00 2.2 6 Nordeste 8 Nordeste 0 -- -- 92
2020-01-09 02:00:00 3.9 3 Norte 7 Noroeste 0 -- -- 91
2020-01-09 01:00:00 4.8 5 Norte 9 Nordeste 0 -- -- 85
2020-01-09 00:00:00 3.8 4 Nordeste 9 Norte 0 -- -- 87
2020-01-08 23:00:00 5.4 5 Norte 13 Norte 0 -- -- 83
2020-01-08 22:00:00 5.3 8 Norte 10 Norte 0 -- -- 84
2020-01-08 21:00:00 6.1 7 Norte 9 Norte 0 -- -- 82
2020-01-08 20:00:00 7.5 5 Noroeste 9 Norte 0 -- -- 74
2020-01-08 19:00:00 8.4 6 Norte 12 Norte 0 -- -- 76
2020-01-08 18:00:00 12.8 0 Calma 4 Sudoeste 0 -- -- 62
2020-01-08 17:00:00 15.2 0 Calma 6 Sur 0 -- -- 48
2020-01-08 16:00:00 14.9 3 Sur 6 Sur 0 -- -- 46
2020-01-08 15:00:00 14.2 3 Sur 6 Sur 0 -- -- 49
2020-01-08 14:00:00 12.9 3 Sur 6 Sudeste 0 -- -- 50
2020-01-08 13:00:00 11.2 2 Sur 5 Sudeste 0 -- -- 62
2020-01-08 12:00:00 7.9 0 Calma 5 Sur 0 -- -- 74
2020-01-08 11:00:00 5.6 3 Sudeste 4 Este 0 -- -- 78
2020-01-08 10:00:00 2.1 0 Calma 4 Norte 0 -- -- 90
2020-01-08 09:00:00 1 0 Calma 6 Norte 0 -- -- 90
2020-01-08 08:00:00 1.9 4 Noroeste 10 Norte 0 -- -- 86
2020-01-08 07:00:00 2.5 5 Norte 8 Norte 0 -- -- 86
2020-01-08 06:00:00 2.9 6 Norte 9 Norte 0 -- -- 84
2020-01-08 05:00:00 2.7 3 Norte 8 Norte 0 -- -- 86
2020-01-08 04:00:00 3.4 5 Norte 9 Norte 0 -- -- 70
2020-01-08 03:00:00 3.1 4 Norte 7 Norte 0 -- -- 75
2020-01-08 02:00:00 3.7 0 Calma 7 Norte 0 -- -- 87
2020-01-08 01:00:00 4.1 0 Calma 8 Norte 0 -- -- 87
2020-01-08 00:00:00 4.4 5 Norte 10 Norte 0 -- -- 89
2020-01-07 23:00:00 5.5 0 Calma 11 Norte 0 -- -- 89
2020-01-07 22:00:00 5.8 0 Calma 12 Norte 0 -- -- 88
2020-01-07 21:00:00 6.1 7 Norte 12 Norte 0 -- -- 85
2020-01-07 20:00:00 6.7 9 Norte 14 Norte 0 -- -- 80
2020-01-07 19:00:00 8.5 11 Norte 14 Norte 0 -- -- 80
2020-01-07 18:00:00 12.3 6 Norte 7 Norte 0 -- -- 69
2020-01-07 17:00:00 15.7 3 Sur 7 Sudoeste 0 -- -- 46
2020-01-07 16:00:00 16.2 2 Sudoeste 8 Sudoeste 0 -- -- 46
2020-01-07 15:00:00 15 3 Sur 10 Sur 0 -- -- 47
2020-01-07 14:00:00 14.1 4 Sur 8 Sudeste 0 -- -- 51
2020-01-07 13:00:00 12.5 2 Sur 5 Sur 0 -- -- 56
2020-01-07 12:00:00 9.4 2 Sur 6 Sur 0 -- -- 71
2020-01-07 11:00:00 7.8 2 Sudeste 3 Sur 0 -- -- 82
2020-01-07 10:00:00 2.3 2 Norte 6 Noroeste 0 -- -- 92
2020-01-07 09:00:00 1.9 5 Norte 8 Norte 0 -- -- 96
2020-01-07 08:00:00 1.9 5 Norte 7 Norte 0 -- -- 94
2020-01-07 07:00:00 2.5 0 Calma 5 Noroeste 0 -- -- 94
2020-01-07 06:00:00 2.6 5 Norte 7 Norte 0 -- -- 95
2020-01-07 05:00:00 3 5 Norte 6 Norte 0 -- -- 93
2020-01-07 04:00:00 2.5 4 Norte 8 Norte 0 -- -- 93
2020-01-07 03:00:00 2.8 5 Norte 9 Norte 0 -- -- 89
2020-01-07 02:00:00 3.5 6 Norte 9 Norte 0 -- -- 89
2020-01-07 01:00:00 4.2 8 Norte 9 Norte 0 -- -- 82
2020-01-07 00:00:00 4.9 4 Noroeste 12 Norte 0 -- -- 84
2020-01-06 23:00:00 4.5 5 Norte 12 Norte 0 -- -- 87
2020-01-06 22:00:00 5.9 8 Norte 13 Norte 0 -- -- 87
2020-01-06 21:00:00 6.1 4 Noroeste 12 Norte 0 -- -- 86
2020-01-06 20:00:00 6.8 5 Norte 11 Norte 0 -- -- 86
2020-01-06 19:00:00 8 6 Norte 12 Norte 0 -- -- 86
2020-01-06 18:00:00 11.6 3 Norte 5 Sur 0 -- -- 71
2020-01-06 17:00:00 13.7 2 Sur 6 Sudeste 0 -- -- 57
2020-01-06 16:00:00 13.2 3 Sur 8 Sudeste 0 -- -- 55
2020-01-06 15:00:00 12.8 3 Sur 10 Sur 0 -- -- 58
2020-01-06 14:00:00 12.5 5 Sur 11 Sur 0 -- -- 61
2020-01-06 13:00:00 11.2 5 Sur 8 Sur 0 -- -- 64
2020-01-06 12:00:00 8.9 4 Sur 6 Sur 0 -- -- 70
2020-01-06 11:00:00 6.5 0 Calma 3 Este 0 -- -- 74
2020-01-06 10:00:00 3 3 Norte 9 Norte 0 -- -- 96